createdAt,value
2017-10-18T00:02:14.485Z,11.00
2017-10-18T00:04:42.827Z,11.00
2017-10-18T00:07:11.124Z,11.00
2017-10-18T00:09:39.455Z,11.00
2017-10-18T00:12:07.792Z,10.90
2017-10-18T00:14:36.091Z,10.90
2017-10-18T00:17:04.414Z,10.90
2017-10-18T00:19:32.742Z,10.90
2017-10-18T00:22:01.792Z,10.90
2017-10-18T00:24:30.123Z,10.80
2017-10-18T00:26:59.184Z,10.80
2017-10-18T00:29:27.599Z,10.80
2017-10-18T00:31:55.899Z,10.90
2017-10-18T00:34:25.752Z,10.80
2017-10-18T00:36:54.836Z,10.80
2017-10-18T00:39:23.921Z,10.80
2017-10-18T00:41:52.258Z,10.80
2017-10-18T00:44:21.356Z,10.70
2017-10-18T00:46:50.439Z,10.70
2017-10-18T00:49:18.763Z,10.70
2017-10-18T00:51:47.851Z,10.70
2017-10-18T00:54:16.910Z,10.70
2017-10-18T00:56:45.241Z,10.70
2017-10-18T00:59:13.531Z,10.60
2017-10-18T01:01:41.863Z,10.60
2017-10-18T01:04:10.189Z,10.60
2017-10-18T01:06:38.519Z,10.60
2017-10-18T01:09:07.607Z,10.60
2017-10-18T01:11:35.935Z,10.60
2017-10-18T01:14:04.262Z,10.60
2017-10-18T01:16:32.586Z,10.60
2017-10-18T02:24:37.024Z,10.00
2017-10-18T02:27:05.320Z,10.00
2017-10-18T02:29:33.750Z,10.00
2017-10-18T02:32:02.039Z,10.00
2017-10-18T02:34:30.431Z,9.90
2017-10-18T02:36:58.770Z,9.90
2017-10-18T02:39:27.080Z,10.00
2017-10-18T02:41:55.371Z,10.10
2017-10-18T02:44:23.691Z,10.10
2017-10-18T02:46:52.088Z,10.10
2017-10-18T02:49:20.379Z,10.10
2017-10-18T02:51:48.718Z,10.20
2017-10-18T02:54:17.055Z,10.10
2017-10-18T02:56:45.347Z,10.00
2017-10-18T02:59:13.639Z,10.10
2017-10-18T03:01:41.962Z,10.10
2017-10-18T03:04:10.291Z,10.10
2017-10-18T03:06:38.619Z,10.10
2017-10-18T03:09:06.967Z,10.10
2017-10-18T03:11:35.258Z,10.10
2017-10-18T03:14:03.567Z,10.10
2017-10-18T03:16:31.886Z,10.10
2017-10-18T03:19:00.948Z,9.90
2017-10-18T03:21:29.272Z,9.90
2017-10-18T03:23:57.563Z,9.90
2017-10-18T03:26:25.889Z,9.90
2017-10-18T03:28:54.203Z,9.90
2017-10-18T03:31:24.168Z,9.90
2017-10-18T03:33:52.487Z,9.90
2017-10-18T03:36:20.783Z,10.00
2017-10-18T03:38:49.112Z,9.90
2017-10-18T03:41:17.403Z,9.90
2017-10-18T03:43:45.726Z,9.90
2017-10-18T03:46:14.811Z,10.00
2017-10-18T03:48:43.152Z,10.00
2017-10-18T03:51:11.484Z,10.00
2017-10-18T03:53:39.774Z,10.10
2017-10-18T03:56:08.099Z,10.00
2017-10-18T03:58:37.168Z,10.00
2017-10-18T04:01:05.491Z,10.00
2017-10-18T04:03:34.582Z,10.10
2017-10-18T04:06:02.878Z,10.00
2017-10-18T04:08:31.938Z,9.90
2017-10-18T04:11:00.266Z,9.90
2017-10-18T04:13:28.559Z,9.90
2017-10-18T04:15:56.882Z,10.00
2017-10-18T04:18:25.231Z,10.00
2017-10-18T04:20:53.514Z,10.00
2017-10-18T04:23:21.814Z,10.00
2017-10-18T04:25:50.143Z,10.00
2017-10-18T04:28:18.439Z,10.00
2017-10-18T04:30:46.768Z,10.10
2017-10-18T04:33:15.086Z,10.10
2017-10-18T04:35:44.155Z,10.10
2017-10-18T04:38:12.479Z,10.10
2017-10-18T04:40:41.542Z,10.10
2017-10-18T04:43:09.868Z,10.10
2017-10-18T04:45:38.158Z,10.10
2017-10-18T04:48:07.982Z,10.20
2017-10-18T04:50:36.372Z,10.20
2017-10-18T04:53:04.690Z,10.10
2017-10-18T04:55:33.788Z,9.90
2017-10-18T04:58:02.879Z,9.90
2017-10-18T05:00:31.267Z,9.90
2017-10-18T05:02:59.592Z,10.00
2017-10-18T05:05:27.924Z,10.00
2017-10-18T05:07:56.224Z,10.10
2017-10-18T05:10:24.565Z,9.90
2017-10-18T05:12:52.927Z,9.80
2017-10-18T05:15:21.212Z,9.80
2017-10-18T05:17:49.534Z,9.90
2017-10-18T05:20:17.829Z,9.90
2017-10-18T05:22:46.161Z,9.80
2017-10-18T05:25:14.450Z,9.90
2017-10-18T05:27:42.740Z,9.90
2017-10-18T05:30:11.070Z,9.90
2017-10-18T05:32:40.164Z,10.00
2017-10-18T05:35:09.259Z,10.00
2017-10-18T05:37:37.555Z,10.00
2017-10-18T05:40:05.942Z,10.10
2017-10-18T05:42:34.236Z,10.00
2017-10-18T05:45:02.544Z,10.10
2017-10-18T05:47:31.631Z,10.00
2017-10-18T05:50:00.015Z,10.00
2017-10-18T05:52:28.527Z,10.00
2017-10-18T05:54:57.623Z,10.00
2017-10-18T05:57:25.911Z,10.00
2017-10-18T05:59:54.234Z,9.90
2017-10-18T06:02:22.524Z,10.00
2017-10-18T06:04:50.853Z,9.90
2017-10-18T06:07:19.146Z,9.90
2017-10-18T06:09:47.551Z,9.90
2017-10-18T06:12:15.851Z,10.00
2017-10-18T06:14:44.162Z,10.10
2017-10-18T06:17:13.255Z,10.00
2017-10-18T06:19:42.356Z,10.10
2017-10-18T06:22:10.645Z,10.10
2017-10-18T06:24:38.971Z,10.20
2017-10-18T06:27:07.267Z,10.30
2017-10-18T06:29:35.600Z,10.30
2017-10-18T06:32:03.903Z,10.30
2017-10-18T06:34:32.232Z,10.30
2017-10-18T06:37:00.528Z,10.40
2017-10-18T06:39:28.852Z,10.40
2017-10-18T06:41:57.192Z,10.40
2017-10-18T06:44:25.531Z,10.40
2017-10-18T06:46:53.859Z,10.40
2017-10-18T06:49:22.959Z,10.70
2017-10-18T06:51:52.019Z,10.80
2017-10-18T06:54:20.317Z,10.70
2017-10-18T06:56:48.658Z,10.80
2017-10-18T06:59:17.723Z,10.80
2017-10-18T07:01:46.052Z,10.80
2017-10-18T07:04:15.139Z,11.00
2017-10-18T07:06:43.466Z,11.00
2017-10-18T07:09:11.767Z,11.10
2017-10-18T07:11:40.104Z,11.20
2017-10-18T07:14:09.934Z,11.20
2017-10-18T07:16:38.236Z,11.20
2017-10-18T07:19:07.326Z,11.20
2017-10-18T07:21:37.158Z,11.20
2017-10-18T07:24:06.968Z,11.30
2017-10-18T07:26:35.298Z,11.20
2017-10-18T07:29:04.351Z,11.50
2017-10-18T07:31:32.670Z,11.50
2017-10-18T07:34:00.970Z,11.70
2017-10-18T07:36:30.073Z,11.80
2017-10-18T07:38:58.364Z,11.80
2017-10-18T07:41:27.427Z,12.00
2017-10-18T07:43:55.749Z,12.00
2017-10-18T07:46:24.075Z,12.00
2017-10-18T07:48:52.399Z,12.10
2017-10-18T07:51:20.723Z,12.20
2017-10-18T07:53:49.779Z,12.30
2017-10-18T07:56:18.125Z,12.30
2017-10-18T08:01:20.967Z,12.40
2017-10-18T08:03:50.056Z,12.70
2017-10-18T08:06:19.156Z,12.80
2017-10-18T08:08:47.447Z,12.80
2017-10-18T08:11:15.779Z,12.90
2017-10-18T08:13:44.112Z,13.00
2017-10-18T08:16:12.435Z,13.20
2017-10-18T08:18:41.491Z,13.40
2017-10-18T08:21:09.823Z,13.50
2017-10-18T08:23:39.044Z,13.50
2017-10-18T08:26:08.135Z,13.50
2017-10-18T08:28:37.223Z,13.50
2017-10-18T08:31:05.525Z,13.50
2017-10-18T08:33:33.854Z,13.60
2017-10-18T08:36:02.149Z,13.80
2017-10-18T08:38:30.430Z,14.00
2017-10-18T08:40:58.752Z,14.20
2017-10-18T08:43:27.048Z,14.40
2017-10-18T08:45:55.366Z,14.40
2017-10-18T08:48:23.686Z,14.60
2017-10-18T08:50:52.034Z,14.80
2017-10-18T08:53:20.422Z,15.00
2017-10-18T08:55:48.758Z,15.10
2017-10-18T08:58:17.108Z,15.20
2017-10-18T09:00:45.395Z,15.40
2017-10-18T09:03:13.722Z,15.40
2017-10-18T09:05:42.779Z,15.30
2017-10-18T09:08:11.190Z,15.30
2017-10-18T09:10:39.985Z,14.90
2017-10-18T09:13:08.370Z,14.70
2017-10-18T09:15:36.673Z,14.90
2017-10-18T09:18:06.499Z,15.40
2017-10-18T09:20:34.830Z,15.40
2017-10-18T09:23:03.119Z,15.60
2017-10-18T09:25:31.420Z,15.50
2017-10-18T09:27:59.759Z,15.60
2017-10-18T09:30:28.054Z,15.70
2017-10-18T09:32:56.426Z,15.90
2017-10-18T09:35:24.750Z,15.90
2017-10-18T09:37:53.817Z,15.80
2017-10-18T09:40:22.138Z,15.80
2017-10-18T09:42:51.237Z,16.00
2017-10-18T09:45:19.557Z,16.00
2017-10-18T09:47:47.847Z,16.20
2017-10-18T09:50:16.183Z,16.50
2017-10-18T09:52:44.480Z,16.70
2017-10-18T09:55:12.768Z,16.80
2017-10-18T09:57:41.174Z,16.80
2017-10-18T10:00:10.973Z,16.90
2017-10-18T10:02:39.276Z,16.90
2017-10-18T10:05:07.595Z,16.70
2017-10-18T10:07:36.699Z,16.70
2017-10-18T10:10:05.758Z,16.90
2017-10-18T10:12:34.056Z,16.90
2017-10-18T10:15:02.471Z,17.00
2017-10-18T10:17:30.859Z,16.80
2017-10-18T10:19:59.186Z,16.70
2017-10-18T10:22:27.479Z,16.80
2017-10-18T10:24:55.767Z,17.00
2017-10-18T10:27:24.096Z,17.00
2017-10-18T10:29:52.416Z,16.90
2017-10-18T10:32:20.718Z,16.90
2017-10-18T10:34:49.810Z,17.10
2017-10-18T10:37:18.096Z,17.10
2017-10-18T10:39:46.424Z,17.10
2017-10-18T10:42:14.742Z,17.00
2017-10-18T10:44:43.031Z,17.10
2017-10-18T10:47:11.358Z,17.10
2017-10-18T10:49:39.695Z,17.00
2017-10-18T10:52:07.984Z,17.10
2017-10-18T10:54:36.325Z,17.10
2017-10-18T10:57:04.608Z,17.30
2017-10-18T10:59:34.448Z,17.40
2017-10-18T11:02:02.731Z,17.40
2017-10-18T11:04:31.067Z,17.50
2017-10-18T11:06:59.388Z,17.30
2017-10-18T11:09:27.685Z,17.20
2017-10-18T11:11:56.083Z,17.10
2017-10-18T11:14:25.887Z,17.10
2017-10-18T11:16:54.232Z,17.10
2017-10-18T11:19:23.283Z,17.10
2017-10-18T11:21:51.572Z,17.00
2017-10-18T11:24:19.903Z,17.10
2017-10-18T11:26:49.004Z,17.10
2017-10-18T11:29:18.800Z,17.00
2017-10-18T11:31:47.216Z,17.00
2017-10-18T11:34:15.502Z,17.00
2017-10-18T11:36:45.347Z,16.90
2017-10-18T11:39:14.408Z,17.00
2017-10-18T11:41:42.734Z,17.00
2017-10-18T11:44:11.116Z,17.00
2017-10-18T11:46:39.508Z,17.00
2017-10-18T11:49:09.303Z,16.80
2017-10-18T11:51:37.635Z,16.70
2017-10-18T11:54:06.736Z,16.90
2017-10-18T11:56:35.027Z,16.90
2017-10-18T11:59:04.854Z,16.70
2017-10-18T12:01:33.182Z,16.70
2017-10-18T12:04:01.513Z,16.70
2017-10-18T12:06:29.812Z,16.60
2017-10-18T12:08:58.143Z,16.70
2017-10-18T12:11:26.435Z,16.70
2017-10-18T12:13:54.770Z,16.80
2017-10-18T12:16:23.059Z,16.70
2017-10-18T12:18:51.393Z,16.70
2017-10-18T12:21:20.442Z,16.70
2017-10-18T12:23:48.765Z,16.60
2017-10-18T12:26:17.086Z,16.50
2017-10-18T12:28:45.374Z,16.60
2017-10-18T12:31:13.719Z,16.60
2017-10-18T12:33:43.528Z,16.70
2017-10-18T12:36:11.855Z,16.70
2017-10-18T12:38:40.947Z,16.80
2017-10-18T12:41:10.743Z,16.80
2017-10-18T12:43:39.068Z,16.80
2017-10-18T12:46:08.862Z,16.60
2017-10-18T12:48:37.190Z,16.60
2017-10-18T12:51:05.484Z,16.70
2017-10-18T12:53:33.806Z,16.70
2017-10-18T12:56:02.174Z,16.80
2017-10-18T12:58:31.318Z,16.80
2017-10-18T13:00:59.766Z,16.80
2017-10-18T13:03:28.854Z,16.80
2017-10-18T13:05:57.198Z,16.70
2017-10-18T13:08:25.532Z,16.60
2017-10-18T13:10:55.362Z,16.40
2017-10-18T13:13:23.701Z,16.40
2017-10-18T13:15:52.043Z,16.40
2017-10-18T13:18:21.888Z,16.40
2017-10-18T13:20:50.969Z,16.40
2017-10-18T13:23:19.274Z,16.40
2017-10-18T13:25:47.610Z,16.50
2017-10-18T13:28:15.971Z,16.40
2017-10-18T13:30:45.065Z,16.40
2017-10-18T13:33:13.545Z,16.40
2017-10-18T13:35:41.836Z,16.40
2017-10-18T13:38:10.212Z,16.50
2017-10-18T13:40:38.513Z,16.50
2017-10-18T13:43:06.803Z,16.50
2017-10-18T13:45:36.661Z,16.20
2017-10-18T13:48:05.031Z,16.20
2017-10-18T13:50:33.403Z,16.30
2017-10-18T13:53:01.702Z,16.30
2017-10-18T13:55:30.076Z,16.50
2017-10-18T13:57:58.353Z,16.50
2017-10-18T14:00:26.699Z,16.40
2017-10-18T14:02:55.943Z,16.50
2017-10-18T14:05:24.234Z,16.50
2017-10-18T14:07:52.582Z,16.60
2017-10-18T14:10:21.682Z,16.50
2017-10-18T14:12:50.792Z,16.50
2017-10-18T14:15:19.118Z,16.50
2017-10-18T14:17:47.449Z,16.50
2017-10-18T14:20:15.825Z,16.40
2017-10-18T14:22:44.161Z,16.50
2017-10-18T14:25:13.307Z,16.50
2017-10-18T14:27:41.623Z,16.50
2017-10-18T14:30:09.969Z,16.50
2017-10-18T14:32:38.346Z,16.40
2017-10-18T14:35:07.404Z,16.50
2017-10-18T14:37:35.722Z,16.50
2017-10-18T14:40:04.072Z,16.40
2017-10-18T14:42:32.402Z,16.40
2017-10-18T14:45:00.728Z,16.40
2017-10-18T14:47:29.066Z,16.30
2017-10-18T14:49:58.903Z,16.30
2017-10-18T14:52:28.703Z,16.20
2017-10-18T14:54:57.011Z,16.20
2017-10-18T14:57:25.356Z,16.20
2017-10-18T14:59:53.671Z,16.00
2017-10-18T15:02:22.009Z,16.00
2017-10-18T15:04:51.122Z,16.00
2017-10-18T15:07:20.211Z,16.00
2017-10-18T15:09:48.609Z,16.00
2017-10-18T15:12:17.716Z,16.00
2017-10-18T15:14:46.046Z,16.00
2017-10-18T15:17:14.402Z,15.90
2017-10-18T15:19:43.488Z,15.90
2017-10-18T15:22:11.877Z,15.90
2017-10-18T15:24:41.241Z,16.00
2017-10-18T15:27:09.559Z,15.90
2017-10-18T15:29:37.876Z,15.90
2017-10-18T15:32:06.178Z,15.90
2017-10-18T15:34:35.271Z,15.80
2017-10-18T15:37:05.084Z,15.70
2017-10-18T15:39:33.419Z,15.70
2017-10-18T15:42:01.718Z,15.60
2017-10-18T15:44:30.052Z,15.60
2017-10-18T15:46:58.347Z,15.60
2017-10-18T15:49:26.667Z,15.50
2017-10-18T15:51:55.851Z,15.40
2017-10-18T15:54:24.248Z,15.40
2017-10-18T15:56:52.576Z,15.30
2017-10-18T15:59:20.918Z,15.30
2017-10-18T16:01:49.248Z,15.30
2017-10-18T16:04:18.414Z,15.10
2017-10-18T16:06:46.735Z,15.10
2017-10-18T16:09:15.800Z,15.00
2017-10-18T16:11:44.123Z,15.00
2017-10-18T16:14:12.449Z,14.90
2017-10-18T16:16:40.786Z,14.80
2017-10-18T16:19:09.077Z,14.70
2017-10-18T16:21:37.474Z,14.60
2017-10-18T16:24:07.351Z,14.50
2017-10-18T16:26:35.675Z,14.40
2017-10-18T16:29:04.053Z,14.30
2017-10-18T16:31:32.329Z,14.30
2017-10-18T16:34:00.623Z,14.20
2017-10-18T16:36:28.947Z,14.20
2017-10-18T16:38:57.948Z,14.10
2017-10-18T16:41:26.291Z,14.00
2017-10-18T16:43:54.582Z,14.00
2017-10-18T16:46:22.871Z,14.00
2017-10-18T16:48:51.480Z,13.90
2017-10-18T16:51:19.816Z,13.80
2017-10-18T16:53:48.103Z,13.70
2017-10-18T16:56:17.205Z,13.50
2017-10-18T16:58:47.114Z,13.50
2017-10-18T17:01:15.443Z,13.50
2017-10-18T17:03:44.507Z,13.50
2017-10-18T17:06:12.837Z,13.40
2017-10-18T17:08:41.160Z,13.40
2017-10-18T17:11:09.529Z,13.30
2017-10-18T17:13:37.835Z,13.30
2017-10-18T17:16:06.172Z,13.30
2017-10-18T17:18:34.497Z,13.30
2017-10-18T17:21:03.595Z,13.20
2017-10-18T17:23:32.666Z,13.10
2017-10-18T17:26:00.989Z,13.10
2017-10-18T17:28:30.130Z,13.00
2017-10-18T17:30:58.410Z,13.00
2017-10-18T17:33:26.739Z,13.00
2017-10-18T17:35:55.139Z,12.90
2017-10-18T17:38:23.462Z,12.90
2017-10-18T17:40:52.565Z,12.70
2017-10-18T17:43:21.750Z,12.80
2017-10-18T17:45:50.096Z,12.70
2017-10-18T17:48:18.422Z,12.80
2017-10-18T17:50:46.785Z,12.70
2017-10-18T17:53:15.119Z,12.70
2017-10-18T17:55:43.487Z,12.60
2017-10-18T17:58:11.770Z,12.60
2017-10-18T18:00:40.095Z,12.50
2017-10-18T18:03:08.466Z,12.50
2017-10-18T18:05:36.771Z,12.40
2017-10-18T18:08:05.860Z,12.40
2017-10-18T18:10:34.181Z,12.40
2017-10-18T18:13:03.235Z,12.40
2017-10-18T18:15:31.555Z,12.40
2017-10-18T18:17:59.890Z,12.40
2017-10-18T18:20:28.184Z,12.40
2017-10-18T18:22:56.589Z,12.30
2017-10-18T18:25:24.942Z,12.30
2017-10-18T18:27:54.115Z,12.10
2017-10-18T18:30:22.427Z,12.10
2017-10-18T18:32:50.728Z,12.10
2017-10-18T18:35:19.908Z,12.00
2017-10-18T18:37:48.264Z,11.90
2017-10-18T18:40:16.589Z,11.90
2017-10-18T18:42:44.915Z,11.90
2017-10-18T18:45:13.976Z,11.90
2017-10-18T18:47:42.337Z,11.80
2017-10-18T18:50:10.660Z,11.80
2017-10-18T18:52:38.982Z,11.90
2017-10-18T18:55:08.040Z,11.80
2017-10-18T18:57:36.377Z,11.80
2017-10-18T19:00:05.453Z,11.70
2017-10-18T19:02:33.789Z,11.60
2017-10-18T19:05:02.839Z,11.60
2017-10-18T19:07:31.217Z,11.60
2017-10-18T19:09:59.546Z,11.60
2017-10-18T19:12:27.870Z,11.50
2017-10-18T19:14:56.195Z,11.60
2017-10-18T19:17:24.566Z,11.60
2017-10-18T19:19:52.997Z,11.50
2017-10-18T19:22:21.327Z,11.50
2017-10-18T19:24:50.429Z,11.60
2017-10-18T19:27:19.503Z,11.50
2017-10-18T19:29:47.866Z,11.50
2017-10-18T19:32:16.198Z,11.50
2017-10-18T19:34:44.543Z,11.50
2017-10-18T19:37:12.867Z,11.40
2017-10-18T19:39:41.225Z,11.40
2017-10-18T19:42:09.519Z,11.30
2017-10-18T19:44:37.919Z,11.30
2017-10-18T19:47:06.247Z,11.30
2017-10-18T19:49:34.630Z,11.20
2017-10-18T19:52:02.924Z,11.30
2017-10-18T19:54:32.052Z,11.20
2017-10-18T19:57:01.143Z,11.10
2017-10-18T19:59:30.290Z,11.10
2017-10-18T20:01:58.611Z,11.10
2017-10-18T20:04:26.906Z,11.10
2017-10-18T20:06:55.260Z,11.10
2017-10-18T20:09:23.595Z,11.20
2017-10-18T20:11:51.916Z,11.10
2017-10-18T20:14:20.997Z,11.10
2017-10-18T20:16:49.402Z,11.10
2017-10-18T20:19:18.499Z,11.10
2017-10-18T20:21:46.791Z,11.10
2017-10-18T20:24:15.152Z,11.10
2017-10-18T20:26:43.447Z,11.10
2017-10-18T20:29:11.788Z,11.00
2017-10-18T20:31:40.966Z,10.90
2017-10-18T20:34:10.117Z,11.00
2017-10-18T20:36:38.493Z,11.00
2017-10-18T20:39:06.828Z,10.90
2017-10-18T20:41:35.115Z,10.90
2017-10-18T20:44:03.469Z,10.80
2017-10-18T20:46:31.822Z,10.80
2017-10-18T20:49:00.227Z,10.80
2017-10-18T20:51:29.287Z,10.70
2017-10-18T20:53:57.744Z,10.70
2017-10-18T20:56:26.113Z,10.70
2017-10-18T20:58:54.461Z,10.70
2017-10-18T21:01:22.762Z,10.70
2017-10-18T21:03:51.119Z,10.80
2017-10-18T21:06:19.485Z,10.70
2017-10-18T21:08:48.788Z,10.70
2017-10-18T21:11:17.874Z,10.70
2017-10-18T21:13:46.233Z,10.70
2017-10-18T21:16:14.654Z,10.70
2017-10-18T21:18:42.951Z,10.80
2017-10-18T21:21:11.238Z,10.80
2017-10-18T21:23:39.655Z,10.80
2017-10-18T21:26:08.727Z,10.70
2017-10-18T21:28:37.031Z,10.70
2017-10-18T21:31:05.420Z,10.70
2017-10-18T21:33:33.751Z,10.60
2017-10-18T21:36:02.049Z,10.70
2017-10-18T21:38:30.380Z,10.70
2017-10-18T21:40:58.720Z,10.60
2017-10-18T21:43:27.059Z,10.50
2017-10-18T21:45:55.462Z,10.60
2017-10-18T21:48:23.768Z,10.50
2017-10-18T21:50:52.157Z,10.50
2017-10-18T21:53:20.474Z,10.50
2017-10-18T21:55:48.813Z,10.40
2017-10-18T21:58:17.102Z,10.30
2017-10-18T22:00:45.498Z,10.30
2017-10-18T22:03:13.801Z,10.30
2017-10-18T22:05:42.144Z,10.40
2017-10-18T22:08:10.479Z,10.50
2017-10-18T22:10:38.775Z,10.30
2017-10-18T22:13:07.109Z,10.30
2017-10-18T22:18:09.937Z,10.30
2017-10-18T22:20:38.267Z,10.10
2017-10-18T22:23:06.758Z,10.00
2017-10-18T22:25:35.888Z,10.10
2017-10-18T22:28:04.950Z,10.20
2017-10-18T22:30:33.287Z,10.10
2017-10-18T22:33:02.348Z,10.30
2017-10-18T22:35:30.634Z,10.20
2017-10-18T22:37:58.975Z,10.30
2017-10-18T22:40:28.035Z,10.20
2017-10-18T22:42:56.351Z,10.30
2017-10-18T22:45:24.740Z,10.20
2017-10-18T22:47:53.075Z,10.20
2017-10-18T22:50:21.376Z,10.30
2017-10-18T22:52:49.702Z,10.30
2017-10-18T22:55:18.036Z,10.20
2017-10-18T22:57:46.331Z,10.10
2017-10-18T23:00:14.687Z,10.10
2017-10-18T23:02:42.982Z,10.00
2017-10-18T23:05:12.088Z,10.00
2017-10-18T23:07:40.386Z,10.00
2017-10-18T23:10:09.480Z,10.00
2017-10-18T23:12:37.865Z,10.00
2017-10-18T23:15:06.194Z,10.00
2017-10-18T23:17:34.539Z,9.90
2017-10-18T23:20:02.843Z,9.90
2017-10-18T23:22:31.167Z,9.80
2017-10-18T23:24:59.455Z,9.80
2017-10-18T23:27:27.778Z,9.70
2017-10-18T23:29:56.099Z,9.80
2017-10-18T23:32:24.386Z,9.80
2017-10-18T23:34:52.711Z,9.70
2017-10-18T23:37:21.036Z,9.70
2017-10-18T23:42:23.985Z,9.60
2017-10-18T23:44:52.270Z,9.50
2017-10-18T23:47:20.667Z,9.50
2017-10-18T23:49:48.963Z,9.50
2017-10-18T23:52:17.295Z,9.50
2017-10-18T23:54:45.582Z,9.40
2017-10-18T23:57:13.926Z,9.40
2017-10-18T23:59:42.258Z,9.30
